createdAt,value
2022-08-26T00:02:07.742Z,2.00
2022-08-26T00:04:36.465Z,1.75
2022-08-26T00:07:05.323Z,2.55
2022-08-26T00:09:39.087Z,1.55
2022-08-26T00:14:38.850Z,1.83
2022-08-26T00:17:08.623Z,1.38
2022-08-26T00:19:37.289Z,1.35
2022-08-26T00:22:06.423Z,1.50
2022-08-26T00:24:34.750Z,1.70
2022-08-26T00:27:03.117Z,1.80
2022-08-26T00:29:37.507Z,2.22
2022-08-26T00:32:07.930Z,1.52
2022-08-26T00:34:36.670Z,2.30
2022-08-26T00:37:05.179Z,1.60
2022-08-26T00:39:38.324Z,1.83
2022-08-26T00:42:06.975Z,1.77
2022-08-26T00:44:35.355Z,1.50
2022-08-26T00:47:06.506Z,1.40
2022-08-26T00:49:39.570Z,1.80
2022-08-26T00:52:11.907Z,1.48
2022-08-26T00:54:45.286Z,1.83
2022-08-26T00:57:16.663Z,1.52
2022-08-26T00:59:45.856Z,1.48
2022-08-26T01:02:20.019Z,1.77
2022-08-26T01:04:52.622Z,1.13
2022-08-26T01:07:24.680Z,1.48
2022-08-26T01:09:53.024Z,2.58
2022-08-26T01:12:22.336Z,1.30
2022-08-26T01:14:51.168Z,1.67
2022-08-26T01:17:19.853Z,1.95
2022-08-26T01:19:51.003Z,1.75
2022-08-26T01:22:28.128Z,1.73
2022-08-26T01:24:59.021Z,1.33
2022-08-26T01:27:32.396Z,1.95
2022-08-26T01:30:01.965Z,1.42
2022-08-26T01:32:30.994Z,1.48
2022-08-26T01:35:00.516Z,1.50
2022-08-26T01:37:30.925Z,1.67
2022-08-26T01:40:00.750Z,1.50
2022-08-26T01:42:29.339Z,1.20
2022-08-26T01:44:59.466Z,1.42
2022-08-26T01:47:29.948Z,1.63
2022-08-26T01:50:01.470Z,1.73
2022-08-26T01:52:32.151Z,1.35
2022-08-26T01:55:02.547Z,1.58
2022-08-26T01:57:31.087Z,1.10
2022-08-26T02:00:01.946Z,1.98
2022-08-26T02:02:30.918Z,1.77
2022-08-26T02:05:01.413Z,1.40
2022-08-26T02:07:30.521Z,1.70
2022-08-26T02:10:02.925Z,1.48
2022-08-26T02:12:32.397Z,1.83
2022-08-26T02:15:02.728Z,1.48
2022-08-26T02:17:36.465Z,1.10
2022-08-26T02:20:07.949Z,1.48
2022-08-26T02:22:45.017Z,1.88
2022-08-26T02:25:18.021Z,1.00
2022-08-26T02:27:48.400Z,1.73
2022-08-26T02:30:18.110Z,1.10
2022-08-26T02:32:46.533Z,1.50
2022-08-26T02:35:20.517Z,1.48
2022-08-26T02:37:49.495Z,1.52
2022-08-26T02:40:21.686Z,0.77
2022-08-26T02:42:52.748Z,1.58
2022-08-26T02:45:23.238Z,1.58
2022-08-26T02:47:52.709Z,1.20
2022-08-26T02:50:22.566Z,1.17
2022-08-26T02:52:50.874Z,1.33
2022-08-26T02:55:20.761Z,1.67
2022-08-26T02:57:53.151Z,1.25
2022-08-26T03:00:21.732Z,1.13
2022-08-26T03:02:52.291Z,1.40
2022-08-26T03:05:22.146Z,1.15
2022-08-26T03:07:52.682Z,1.38
2022-08-26T03:10:25.976Z,1.10
2022-08-26T03:12:54.462Z,1.38
2022-08-26T03:15:22.830Z,1.17
2022-08-26T03:17:51.357Z,1.27
2022-08-26T03:20:19.830Z,1.27
2022-08-26T03:22:49.738Z,1.35
2022-08-26T03:25:19.662Z,1.30
2022-08-26T03:27:49.391Z,1.52
2022-08-26T03:30:35.848Z,1.02
2022-08-26T03:33:04.416Z,1.02
2022-08-26T03:35:33.546Z,1.52
2022-08-26T03:38:03.314Z,1.10
2022-08-26T03:40:33.739Z,1.17
2022-08-26T03:43:04.123Z,1.27
2022-08-26T03:45:32.633Z,0.95
2022-08-26T03:48:01.654Z,1.25
2022-08-26T03:50:31.097Z,1.55
2022-08-26T03:53:03.149Z,1.30
2022-08-26T03:55:33.377Z,1.17
2022-08-26T03:58:03.396Z,1.75
2022-08-26T04:00:31.882Z,1.05
2022-08-26T04:03:02.924Z,0.88
2022-08-26T04:05:31.645Z,0.88
2022-08-26T04:07:59.995Z,1.23
2022-08-26T04:10:29.414Z,1.90
2022-08-26T04:12:58.661Z,1.20
2022-08-26T04:15:29.102Z,1.35
2022-08-26T04:17:58.305Z,2.03
2022-08-26T04:20:26.925Z,1.17
2022-08-26T04:22:55.362Z,1.00
2022-08-26T04:25:24.124Z,1.30
2022-08-26T04:27:52.719Z,1.73
2022-08-26T04:30:21.288Z,1.52
2022-08-26T04:32:51.109Z,1.38
2022-08-26T04:35:25.429Z,1.13
2022-08-26T04:40:22.668Z,1.42
2022-08-26T04:42:51.264Z,1.38
2022-08-26T04:45:22.742Z,1.13
2022-08-26T04:47:56.358Z,1.42
2022-08-26T04:50:25.732Z,1.38
2022-08-26T04:52:55.315Z,1.42
2022-08-26T04:55:25.189Z,1.52
2022-08-26T04:58:08.876Z,0.77
2022-08-26T05:00:39.443Z,0.98
2022-08-26T05:03:10.276Z,1.00
2022-08-26T05:05:39.786Z,1.02
2022-08-26T05:08:08.378Z,1.60
2022-08-26T05:10:40.832Z,1.17
2022-08-26T05:13:11.045Z,1.27
2022-08-26T05:15:40.909Z,1.55
2022-08-26T05:18:11.612Z,1.23
2022-08-26T05:20:41.164Z,1.25
2022-08-26T05:23:09.775Z,1.02
2022-08-26T05:25:40.443Z,1.67
2022-08-26T05:28:08.853Z,1.55
2022-08-26T05:30:37.287Z,1.52
2022-08-26T05:33:06.174Z,1.00
2022-08-26T05:35:35.911Z,1.52
2022-08-26T05:38:08.250Z,1.63
2022-08-26T05:40:41.579Z,1.20
2022-08-26T05:43:10.807Z,1.13
2022-08-26T05:45:44.890Z,1.38
2022-08-26T05:48:15.251Z,1.63
2022-08-26T05:50:47.981Z,1.20
2022-08-26T05:53:17.724Z,1.02
2022-08-26T05:55:46.879Z,1.65
2022-08-26T05:58:15.235Z,2.00
2022-08-26T06:00:46.282Z,1.17
2022-08-26T06:03:14.971Z,1.33
2022-08-26T06:05:44.090Z,1.50
2022-08-26T06:08:19.275Z,1.58
2022-08-26T06:10:48.417Z,1.40
2022-08-26T06:13:18.358Z,1.00
2022-08-26T06:15:47.874Z,0.98
2022-08-26T06:18:16.973Z,1.17
2022-08-26T06:20:57.096Z,1.20
2022-08-26T06:23:45.222Z,1.98
2022-08-26T06:26:14.323Z,1.33
2022-08-26T06:28:45.389Z,2.20
2022-08-26T06:31:14.656Z,1.35
2022-08-26T06:33:43.557Z,2.08
2022-08-26T06:36:17.015Z,1.75
2022-08-26T06:38:48.748Z,2.28
2022-08-26T06:41:18.007Z,1.60
2022-08-26T06:43:46.638Z,1.65
2022-08-26T06:46:16.579Z,1.90
2022-08-26T06:48:45.367Z,2.63
2022-08-26T06:51:14.864Z,2.63
2022-08-26T06:53:45.527Z,2.42
2022-08-26T06:56:16.284Z,2.47
2022-08-26T06:58:45.292Z,2.22
2022-08-26T07:01:18.844Z,1.88
2022-08-26T07:03:48.217Z,2.03
2022-08-26T07:06:18.565Z,2.30
2022-08-26T07:08:47.059Z,2.42
2022-08-26T07:11:17.359Z,2.17
2022-08-26T07:13:45.822Z,2.20
2022-08-26T07:16:16.370Z,2.17
2022-08-26T07:18:45.827Z,1.73
2022-08-26T07:21:15.244Z,2.83
2022-08-26T07:23:43.700Z,2.30
2022-08-26T07:26:15.277Z,2.25
2022-08-26T07:28:46.140Z,2.00
2022-08-26T07:31:15.447Z,2.00
2022-08-26T07:33:44.398Z,1.95
2022-08-26T07:36:14.052Z,2.60
2022-08-26T07:38:44.307Z,2.85
2022-08-26T07:41:13.268Z,2.47
2022-08-26T07:43:41.767Z,2.63
2022-08-26T07:46:16.280Z,2.58
2022-08-26T07:48:46.273Z,2.53
2022-08-26T07:51:15.608Z,2.50
2022-08-26T07:53:44.218Z,2.10
2022-08-26T07:56:16.743Z,2.50
2022-08-26T07:58:48.944Z,2.45
2022-08-26T08:01:21.560Z,2.47
2022-08-26T08:03:51.733Z,2.20
2022-08-26T08:06:20.698Z,2.17
2022-08-26T08:08:51.669Z,2.53
2022-08-26T08:11:21.605Z,3.05
2022-08-26T08:13:56.040Z,2.35
2022-08-26T08:16:27.095Z,2.58
2022-08-26T08:18:56.508Z,2.70
2022-08-26T08:21:25.379Z,2.47
2022-08-26T08:23:54.216Z,2.60
2022-08-26T08:26:23.402Z,2.58
2022-08-26T08:28:52.457Z,2.88
2022-08-26T08:31:52.079Z,2.47
2022-08-26T08:34:11.725Z,2.58
2022-08-26T08:36:40.196Z,2.08
2022-08-26T08:39:10.276Z,2.50
2022-08-26T08:41:46.087Z,2.10
2022-08-26T08:44:16.014Z,2.45
2022-08-26T08:46:44.796Z,2.92
2022-08-26T08:49:16.038Z,2.20
2022-08-26T08:51:46.862Z,2.42
2022-08-26T08:54:15.333Z,2.67
2022-08-26T08:56:46.569Z,2.70
2022-08-26T08:59:16.893Z,2.17
2022-08-26T09:01:52.261Z,2.08
2022-08-26T09:04:32.702Z,1.83
2022-08-26T09:07:02.569Z,2.15
2022-08-26T09:09:33.985Z,2.35
2022-08-26T09:12:03.303Z,2.70
2022-08-26T09:14:33.014Z,2.67
2022-08-26T09:17:03.422Z,2.17
2022-08-26T09:19:39.962Z,2.15
2022-08-26T09:22:09.610Z,2.13
2022-08-26T09:24:48.273Z,2.13
2022-08-26T09:27:37.589Z,2.15
2022-08-26T09:30:07.092Z,2.30
2022-08-26T09:32:35.754Z,2.08
2022-08-26T09:35:07.563Z,2.50
2022-08-26T09:37:38.244Z,2.88
2022-08-26T09:40:15.037Z,2.45
2022-08-26T09:42:43.558Z,2.55
2022-08-26T09:45:12.992Z,1.75
2022-08-26T09:47:42.996Z,1.70
2022-08-26T09:50:20.601Z,1.80
2022-08-26T09:52:49.278Z,2.50
2022-08-26T09:55:24.131Z,1.83
2022-08-26T09:57:54.269Z,1.70
2022-08-26T10:00:30.949Z,2.63
2022-08-26T10:03:00.816Z,2.08
2022-08-26T10:05:33.311Z,1.83
2022-08-26T10:08:01.951Z,2.13
2022-08-26T10:10:33.506Z,2.15
2022-08-26T10:13:04.630Z,2.05
2022-08-26T10:15:37.753Z,1.95
2022-08-26T10:18:11.551Z,1.92
2022-08-26T10:20:47.347Z,1.88
2022-08-26T10:23:18.608Z,1.90
2022-08-26T10:25:48.568Z,2.25
2022-08-26T10:28:22.526Z,2.10
2022-08-26T10:30:53.497Z,1.88
2022-08-26T10:33:21.892Z,2.22
2022-08-26T10:35:55.409Z,2.42
2022-08-26T10:38:28.832Z,1.83
2022-08-26T10:40:59.689Z,1.90
2022-08-26T10:43:29.158Z,2.00
2022-08-26T10:46:01.722Z,1.70
2022-08-26T10:48:37.185Z,2.20
2022-08-26T10:51:11.794Z,2.00
2022-08-26T10:53:44.425Z,2.53
2022-08-26T10:56:19.238Z,1.50
2022-08-26T11:01:40.827Z,1.92
2022-08-26T11:04:15.441Z,2.30
2022-08-26T11:06:46.137Z,2.03
2022-08-26T11:09:34.685Z,2.47
2022-08-26T11:12:10.113Z,2.17
2022-08-26T11:14:53.109Z,1.85
2022-08-26T11:17:55.436Z,2.33
2022-08-26T11:20:33.164Z,1.63
2022-08-26T11:23:16.569Z,1.23
2022-08-26T11:26:00.221Z,2.72
2022-08-26T11:28:35.454Z,2.03
2022-08-26T11:31:07.704Z,2.55
2022-08-26T11:34:00.754Z,1.92
2022-08-26T11:36:38.458Z,1.58
2022-08-26T11:39:16.577Z,1.27
2022-08-26T11:41:45.640Z,1.42
2022-08-26T11:44:19.273Z,2.00
2022-08-26T11:46:56.862Z,1.63
2022-08-26T11:49:25.778Z,0.90
2022-08-26T11:51:55.730Z,1.48
2022-08-26T11:54:48.104Z,1.30
2022-08-26T11:57:16.758Z,2.20
2022-08-26T11:59:46.588Z,1.60
2022-08-26T12:02:17.935Z,1.40
2022-08-26T12:04:48.844Z,1.67
2022-08-26T12:07:23.759Z,1.92
2022-08-26T12:09:54.441Z,1.60
2022-08-26T12:12:26.319Z,1.50
2022-08-26T12:15:10.209Z,1.60
2022-08-26T12:17:39.977Z,1.70
2022-08-26T12:20:18.816Z,1.77
2022-08-26T12:22:47.971Z,1.70
2022-08-26T12:25:23.841Z,1.40
2022-08-26T12:27:53.992Z,1.40
2022-08-26T12:30:26.299Z,1.50
2022-08-26T12:32:58.715Z,2.03
2022-08-26T12:35:28.920Z,1.85
2022-08-26T12:37:58.256Z,1.35
2022-08-26T12:40:27.613Z,1.33
2022-08-26T12:42:56.474Z,1.45
2022-08-26T12:45:30.289Z,1.15
2022-08-26T12:48:01.269Z,1.37
2022-08-26T12:50:31.350Z,1.70
2022-08-26T12:53:01.487Z,2.05
2022-08-26T12:55:37.178Z,1.73
2022-08-26T12:58:12.916Z,1.40
2022-08-26T13:00:44.170Z,1.38
2022-08-26T13:03:32.925Z,1.35
2022-08-26T13:06:15.959Z,1.17
2022-08-26T13:08:45.245Z,1.33
2022-08-26T13:11:15.554Z,1.60
2022-08-26T13:13:43.983Z,1.27
2022-08-26T13:16:14.622Z,1.50
2022-08-26T13:18:43.223Z,1.52
2022-08-26T13:21:14.099Z,1.45
2022-08-26T13:23:42.721Z,1.38
2022-08-26T13:26:31.140Z,1.70
2022-08-26T13:29:01.394Z,1.17
2022-08-26T13:35:05.611Z,1.80
2022-08-26T13:37:35.608Z,1.80
2022-08-26T13:40:07.457Z,1.92
2022-08-26T13:42:36.625Z,1.73
2022-08-26T13:45:05.613Z,1.50
2022-08-26T13:47:34.491Z,1.67
2022-08-26T13:50:05.702Z,1.55
2022-08-26T13:52:34.436Z,1.38
2022-08-26T13:55:03.691Z,1.50
2022-08-26T13:57:32.264Z,1.40
2022-08-26T14:00:00.688Z,1.70
2022-08-26T14:02:31.037Z,1.58
2022-08-26T14:04:59.648Z,1.50
2022-08-26T14:07:29.644Z,1.98
2022-08-26T14:09:58.268Z,1.58
2022-08-26T14:12:26.675Z,1.85
2022-08-26T14:14:55.437Z,1.40
2022-08-26T14:17:25.111Z,1.25
2022-08-26T14:19:54.488Z,1.45
2022-08-26T14:22:23.937Z,1.33
2022-08-26T14:24:53.773Z,1.52
2022-08-26T14:27:22.269Z,1.17
2022-08-26T14:29:50.645Z,1.30
2022-08-26T14:32:22.974Z,1.55
2022-08-26T14:34:51.744Z,1.50
2022-08-26T14:37:20.589Z,1.52
2022-08-26T14:39:49.037Z,1.35
2022-08-26T14:42:19.976Z,1.08
2022-08-26T14:44:52.139Z,1.40
2022-08-26T14:47:20.547Z,1.00
2022-08-26T14:49:48.953Z,1.02
2022-08-26T14:52:17.364Z,1.30
2022-08-26T14:54:44.786Z,0.90
2022-08-26T14:57:13.956Z,1.40
2022-08-26T14:59:49.661Z,1.17
2022-08-26T15:02:33.556Z,1.40
2022-08-26T15:05:02.427Z,1.20
2022-08-26T15:07:31.121Z,1.58
2022-08-26T15:09:59.511Z,1.13
2022-08-26T15:12:28.024Z,1.23
2022-08-26T15:14:57.841Z,1.70
2022-08-26T15:17:26.250Z,2.90
2022-08-26T15:19:54.664Z,1.33
2022-08-26T15:22:23.119Z,1.98
2022-08-26T15:24:53.755Z,1.75
2022-08-26T15:27:22.806Z,2.10
2022-08-26T15:29:51.749Z,2.33
2022-08-26T15:32:21.533Z,1.65
2022-08-26T15:34:53.037Z,1.60
2022-08-26T15:37:21.425Z,1.80
2022-08-26T15:39:49.944Z,1.92
2022-08-26T15:42:18.390Z,1.67
2022-08-26T15:44:47.036Z,1.83
2022-08-26T15:47:15.446Z,1.90
2022-08-26T15:49:45.238Z,2.20
2022-08-26T15:52:13.565Z,1.50
2022-08-26T15:54:41.941Z,1.77
2022-08-26T15:57:12.393Z,1.92
2022-08-26T15:59:41.377Z,1.90
2022-08-26T16:02:09.857Z,1.70
2022-08-26T16:04:38.683Z,2.05
2022-08-26T16:07:08.422Z,1.50
2022-08-26T16:09:36.821Z,1.60
2022-08-26T16:12:05.549Z,1.70
2022-08-26T16:14:34.504Z,2.00
2022-08-26T16:17:02.943Z,1.90
2022-08-26T16:19:31.334Z,1.40
2022-08-26T16:21:59.779Z,2.05
2022-08-26T16:24:30.651Z,2.05
2022-08-26T16:27:00.295Z,1.60
2022-08-26T16:29:28.963Z,1.33
2022-08-26T16:31:57.415Z,2.60
2022-08-26T16:34:25.994Z,2.08
2022-08-26T16:36:54.397Z,1.45
2022-08-26T16:39:22.732Z,2.45
2022-08-26T16:41:52.657Z,1.65
2022-08-26T16:44:22.174Z,2.75
2022-08-26T16:46:50.704Z,2.17
2022-08-26T16:49:26.939Z,1.52
2022-08-26T16:51:55.369Z,1.90
2022-08-26T16:54:23.912Z,1.50
2022-08-26T16:56:53.672Z,1.70
2022-08-26T16:59:22.122Z,1.20
2022-08-26T17:01:50.618Z,1.50
2022-08-26T17:04:19.782Z,1.58
2022-08-26T17:06:48.265Z,1.88
2022-08-26T17:09:16.707Z,1.58
2022-08-26T17:11:45.113Z,1.50
2022-08-26T17:14:15.254Z,1.30
2022-08-26T17:16:43.616Z,1.83
2022-08-26T17:19:12.038Z,1.67
2022-08-26T17:21:41.344Z,1.58
2022-08-26T17:24:09.697Z,1.42
2022-08-26T17:26:39.201Z,1.35
2022-08-26T17:29:08.190Z,1.73
2022-08-26T17:31:38.059Z,1.42
2022-08-26T17:34:06.793Z,1.33
2022-08-26T17:36:35.416Z,1.73
2022-08-26T17:39:03.821Z,1.63
2022-08-26T17:41:32.222Z,1.58
2022-08-26T17:44:00.597Z,1.45
2022-08-26T17:46:29.138Z,1.95
2022-08-26T17:48:59.084Z,1.42
2022-08-26T17:51:27.766Z,1.45
2022-08-26T17:53:56.308Z,1.48
2022-08-26T17:56:25.723Z,1.80
2022-08-26T17:58:54.668Z,1.35
2022-08-26T18:01:26.793Z,1.42
2022-08-26T18:04:00.122Z,1.48
2022-08-26T18:06:31.354Z,1.75
2022-08-26T18:09:00.035Z,1.23
2022-08-26T18:11:28.497Z,1.73
2022-08-26T18:13:56.929Z,2.05
2022-08-26T18:16:25.439Z,1.55
2022-08-26T18:18:53.814Z,1.80
2022-08-26T18:21:23.375Z,1.50
2022-08-26T18:23:53.742Z,1.60
2022-08-26T18:26:23.030Z,1.83
2022-08-26T18:28:51.549Z,1.52
2022-08-26T18:31:20.065Z,1.95
2022-08-26T18:33:48.812Z,1.45
2022-08-26T18:36:18.546Z,1.92
2022-08-26T18:38:47.130Z,2.00
2022-08-26T18:41:21.404Z,2.00
2022-08-26T18:43:50.496Z,1.73
2022-08-26T18:46:19.941Z,1.95
2022-08-26T18:48:50.924Z,2.25
2022-08-26T18:51:20.439Z,1.65
2022-08-26T18:53:48.840Z,2.17
2022-08-26T18:56:18.633Z,2.47
2022-08-26T18:58:48.673Z,1.95
2022-08-26T19:01:17.603Z,1.90
2022-08-26T19:03:46.196Z,1.95
2022-08-26T19:06:15.607Z,1.73
2022-08-26T19:08:44.541Z,1.60
2022-08-26T19:11:13.973Z,1.10
2022-08-26T19:13:42.490Z,1.80
2022-08-26T19:16:17.689Z,1.00
2022-08-26T19:18:46.169Z,0.73
2022-08-26T19:21:15.099Z,0.45
2022-08-26T19:23:43.648Z,0.77
2022-08-26T19:26:12.175Z,0.98
2022-08-26T19:28:40.762Z,1.38
2022-08-26T19:31:10.566Z,0.75
2022-08-26T19:33:41.714Z,0.85
2022-08-26T19:36:14.651Z,1.40
2022-08-26T19:38:43.856Z,0.75
2022-08-26T19:41:13.087Z,0.70
2022-08-26T19:43:41.575Z,1.15
2022-08-26T19:46:13.814Z,0.28
2022-08-26T19:48:44.427Z,0.65
2022-08-26T19:51:15.631Z,0.40
2022-08-26T19:53:44.766Z,0.43
2022-08-26T19:56:13.495Z,0.47
2022-08-26T19:58:42.285Z,0.40
2022-08-26T20:01:10.868Z,0.43
2022-08-26T20:03:39.505Z,0.93
2022-08-26T20:06:10.175Z,0.30
2022-08-26T20:08:39.946Z,0.47
2022-08-26T20:11:11.196Z,0.45
2022-08-26T20:13:40.043Z,0.57
2022-08-26T20:16:10.277Z,0.45
2022-08-26T20:18:56.461Z,0.40
2022-08-26T20:21:29.300Z,0.70
2022-08-26T20:24:00.434Z,0.50
2022-08-26T20:26:29.480Z,0.35
2022-08-26T20:28:58.399Z,0.45
2022-08-26T20:31:27.568Z,0.70
2022-08-26T20:33:56.135Z,0.20
2022-08-26T20:36:27.021Z,0.60
2022-08-26T20:38:55.804Z,0.45
2022-08-26T20:41:25.785Z,0.55
2022-08-26T20:43:54.530Z,0.65
2022-08-26T20:46:25.013Z,0.40
2022-08-26T20:48:53.870Z,0.57
2022-08-26T20:51:22.915Z,0.60
2022-08-26T20:53:52.890Z,0.70
2022-08-26T20:56:24.305Z,0.35
2022-08-26T20:58:53.177Z,0.35
2022-08-26T21:01:23.584Z,0.40
2022-08-26T21:03:52.937Z,0.50
2022-08-26T21:06:21.530Z,0.75
2022-08-26T21:08:53.006Z,0.35
2022-08-26T21:11:21.515Z,0.52
2022-08-26T21:14:04.513Z,0.45
2022-08-26T21:16:39.572Z,0.30
2022-08-26T21:19:10.191Z,0.63
2022-08-26T21:21:38.716Z,0.57
2022-08-26T21:24:08.842Z,0.40
2022-08-26T21:26:37.364Z,0.70
2022-08-26T21:29:06.745Z,1.05
2022-08-26T21:31:35.222Z,0.65
2022-08-26T21:34:03.771Z,0.55
2022-08-26T21:36:32.174Z,0.65
2022-08-26T21:39:01.179Z,0.90
2022-08-26T21:41:31.079Z,0.77
2022-08-26T21:44:00.121Z,0.65
2022-08-26T21:46:29.753Z,0.90
2022-08-26T21:48:59.147Z,1.02
2022-08-26T21:51:29.297Z,0.70
2022-08-26T21:53:58.270Z,0.60
2022-08-26T21:56:27.637Z,1.67
2022-08-26T21:58:59.143Z,0.75
2022-08-26T22:01:28.154Z,0.40
2022-08-26T22:03:56.603Z,0.95
2022-08-26T22:06:25.947Z,0.73
2022-08-26T22:08:54.338Z,1.20
2022-08-26T22:11:22.713Z,0.68
2022-08-26T22:13:51.183Z,0.85
2022-08-26T22:16:21.387Z,0.70
2022-08-26T22:18:49.777Z,0.68
2022-08-26T22:21:19.637Z,1.15
2022-08-26T22:23:48.405Z,0.60
2022-08-26T22:26:25.200Z,0.55
2022-08-26T22:28:54.281Z,0.88
2022-08-26T22:31:37.025Z,0.57
2022-08-26T22:34:07.438Z,1.30
2022-08-26T22:36:36.078Z,1.55
2022-08-26T22:39:11.109Z,0.68
2022-08-26T22:41:40.106Z,1.75
2022-08-26T22:44:08.536Z,0.90
2022-08-26T22:46:38.580Z,0.93
2022-08-26T22:49:06.991Z,0.98
2022-08-26T22:51:35.391Z,1.85
2022-08-26T22:54:03.775Z,1.10
2022-08-26T22:56:32.204Z,1.08
2022-08-26T22:59:00.627Z,0.82
2022-08-26T23:01:29.072Z,1.27
2022-08-26T23:03:58.898Z,0.90
2022-08-26T23:06:27.245Z,1.92
2022-08-26T23:08:55.566Z,0.88
2022-08-26T23:11:23.913Z,0.95
2022-08-26T23:13:52.275Z,1.02
2022-08-26T23:16:21.177Z,1.10
2022-08-26T23:18:50.371Z,1.60
2022-08-26T23:21:20.105Z,1.30
2022-08-26T23:23:48.465Z,1.33
2022-08-26T23:26:17.757Z,1.70
2022-08-26T23:28:46.343Z,1.00
2022-08-26T23:31:15.373Z,1.50
2022-08-26T23:34:01.246Z,0.98
2022-08-26T23:36:35.088Z,2.30
2022-08-26T23:39:04.375Z,1.02
2022-08-26T23:41:32.941Z,1.52
2022-08-26T23:44:03.522Z,1.20
2022-08-26T23:46:32.159Z,0.98
2022-08-26T23:49:00.615Z,1.05
2022-08-26T23:51:47.008Z,1.05
2022-08-26T23:54:18.879Z,0.95
2022-08-26T23:56:47.645Z,0.90
2022-08-26T23:59:15.963Z,0.85
